Time;durP1;ratioP1;P1;durP2;ratioP2;P2;SDS_P1;SDS_P2;PMS_P1;PMS_P2;Temp;Humidity;BMP_temperature;BMP_pressure;BME280_temperature;BME280_humidity;BME280_pressure;Samples;Min_cycle;Max_cycle;Signal;HPM_P1;HPM_P2
2023/01/12 00:01:23;;;;;;;34.55;5.47;;;9.50;99.90;;;;;;5052360;28;20029;-73
2023/01/12 00:03:50;;;;;;;44.20;5.55;;;9.50;99.90;;;;;;5050848;28;20025;-73
2023/01/12 00:06:18;;;;;;;38.92;5.57;;;9.50;99.90;;;;;;5048499;28;20029;-73
2023/01/12 00:08:47;;;;;;;45.15;6.35;;;9.60;99.90;;;;;;5052969;28;20036;-73
2023/01/12 00:11:13;;;;;;;52.72;6.28;;;9.50;99.90;;;;;;5051638;28;20418;-73
2023/01/12 00:13:39;;;;;;;46.92;6.82;;;9.50;99.90;;;;;;5049197;28;20025;-73
2023/01/12 00:18:49;;;;;;;55.42;7.57;;;9.60;99.90;;;;;;5038108;28;20400;-73
2023/01/12 00:21:16;;;;;;;54.28;7.10;;;9.60;99.90;;;;;;5052439;28;20021;-73
2023/01/12 00:23:42;;;;;;;56.05;7.05;;;9.50;99.90;;;;;;5050552;28;20017;-73
2023/01/12 00:26:08;;;;;;;61.20;7.70;;;9.60;99.90;;;;;;5039112;28;20033;-73
2023/01/12 00:28:34;;;;;;;71.88;7.93;;;9.60;99.90;;;;;;5051815;28;20031;-73
2023/01/12 00:31:02;;;;;;;73.85;9.30;;;9.60;99.90;;;;;;5050265;28;20017;-72
2023/01/12 00:33:27;;;;;;;76.35;8.77;;;9.60;99.90;;;;;;5052367;28;20029;-73
2023/01/12 00:35:53;;;;;;;68.57;8.32;;;9.70;99.90;;;;;;5038493;28;20024;-72
2023/01/12 00:38:19;;;;;;;69.70;9.23;;;9.70;99.90;;;;;;5043189;28;20341;-73
2023/01/12 00:40:45;;;;;;;74.13;9.77;;;9.80;99.90;;;;;;5046177;28;20021;-72
2023/01/12 00:45:55;;;;;;;97.32;11.38;;;9.80;99.90;;;;;;5044482;28;20039;-73
2023/01/12 00:48:21;;;;;;;79.55;9.73;;;9.80;99.90;;;;;;5051150;28;20041;-72
2023/01/12 00:50:47;;;;;;;84.85;10.32;;;9.80;99.90;;;;;;5043910;28;20080;-72
2023/01/12 00:53:13;;;;;;;72.72;10.02;;;9.80;99.90;;;;;;5044908;28;20033;-72
2023/01/12 00:55:38;;;;;;;73.72;9.52;;;9.80;99.90;;;;;;5052350;28;20061;-72
2023/01/12 00:58:04;;;;;;;79.70;10.38;;;9.90;99.90;;;;;;5052091;28;20146;-73
2023/01/12 01:00:30;;;;;;;81.03;10.40;;;9.90;99.90;;;;;;5050949;28;20083;-72
2023/01/12 01:02:55;;;;;;;78.13;9.52;;;9.90;99.90;;;;;;5034261;28;20029;-73
2023/01/12 01:05:21;;;;;;;82.68;9.93;;;9.90;99.90;;;;;;5047481;28;20024;-72
2023/01/12 01:07:47;;;;;;;93.57;11.90;;;9.90;99.90;;;;;;5049154;28;20043;-72
2023/01/12 01:10:15;;;;;;;93.55;10.93;;;9.90;99.90;;;;;;5050678;28;20049;-72
2023/01/12 01:12:41;;;;;;;75.63;9.73;;;9.90;99.90;;;;;;5051636;28;20553;-72
2023/01/12 01:15:07;;;;;;;77.78;9.88;;;9.90;99.90;;;;;;5049651;28;20111;-73
2023/01/12 01:17:33;;;;;;;74.88;10.35;;;10.00;99.90;;;;;;5047075;28;20048;-72
2023/01/12 01:19:58;;;;;;;78.22;10.15;;;10.00;99.90;;;;;;5051362;28;20025;-72
2023/01/12 01:22:24;;;;;;;63.47;8.45;;;10.00;99.90;;;;;;5051580;28;20047;-73
2023/01/12 01:24:50;;;;;;;68.03;9.00;;;10.00;99.90;;;;;;5050467;28;20021;-72
2023/01/12 01:27:15;;;;;;;66.25;8.93;;;10.00;99.90;;;;;;5036515;28;20029;-73
2023/01/12 01:29:41;;;;;;;61.70;8.57;;;10.00;99.90;;;;;;5052016;28;20344;-72
2023/01/12 01:32:06;;;;;;;55.00;8.05;;;10.00;99.90;;;;;;5050751;28;20021;-72
2023/01/12 01:34:32;;;;;;;46.47;7.07;;;10.00;99.90;;;;;;5049075;28;20021;-72
2023/01/12 01:36:58;;;;;;;48.55;6.60;;;9.90;99.90;;;;;;5046196;28;20502;-72
2023/01/12 01:39:24;;;;;;;42.70;6.65;;;10.00;99.90;;;;;;5044151;28;20025;-72
2023/01/12 01:41:50;;;;;;;44.42;6.88;;;9.90;99.90;;;;;;5045213;28;20415;-72
2023/01/12 01:44:28;;;;;;;45.08;6.32;;;9.90;99.90;;;;;;5029709;28;20032;-72
2023/01/12 01:46:59;;;;;;;37.53;5.45;;;9.90;99.90;;;;;;5036709;28;20058;-73
2023/01/12 01:49:36;;;;;;;34.35;5.63;;;9.90;99.90;;;;;;5044211;28;20052;-72
2023/01/12 01:52:07;;;;;;;29.75;5.25;;;9.90;99.90;;;;;;5049371;28;20052;-73
2023/01/12 01:54:42;;;;;;;40.55;5.22;;;9.90;99.90;;;;;;5040818;28;20036;-72
2023/01/12 01:57:10;;;;;;;;;;;9.90;99.90;;;;;;5049417;28;20491;-73
2023/01/12 01:59:39;;;;;;;32.35;4.88;;;9.80;99.90;;;;;;5050371;28;20291;-73
2023/01/12 02:02:05;;;;;;;25.52;4.25;;;9.80;99.90;;;;;;5042493;28;20061;-73
2023/01/12 02:04:31;;;;;;;34.03;5.35;;;9.80;99.90;;;;;;5031362;28;20106;-73
2023/01/12 02:06:59;;;;;;;28.63;4.13;;;9.80;99.90;;;;;;5045001;28;20127;-73
2023/01/12 02:09:26;;;;;;;25.63;4.40;;;9.80;99.90;;;;;;5045672;28;20103;-73
2023/01/12 02:17:55;;;;;;;41.70;5.28;;;9.90;99.90;;;;;;5044653;28;20037;-73
2023/01/12 02:20:47;;;;;;;41.78;6.07;;;9.90;99.90;;;;;;5033594;28;20033;-73
2023/01/12 02:23:40;;;;;;;47.40;6.75;;;9.90;99.90;;;;;;5046865;28;20253;-73
2023/01/12 02:26:09;;;;;;;42.90;5.93;;;10.00;99.90;;;;;;5050261;28;20392;-73
2023/01/12 02:29:02;;;;;;;33.90;4.97;;;10.00;99.90;;;;;;5047828;28;20033;-74
2023/01/12 02:31:43;;;;;;;43.05;5.22;;;10.00;99.90;;;;;;5038291;28;20116;-73
2023/01/12 02:34:25;;;;;;;43.67;6.18;;;10.00;99.90;;;;;;5044691;28;20475;-73
2023/01/12 02:37:38;;;;;;;35.55;5.05;;;10.00;99.90;;;;;;5047980;28;20620;-73
2023/01/12 02:40:30;;;;;;;30.92;4.60;;;10.00;99.90;;;;;;5026368;28;20047;-74
2023/01/12 02:43:17;;;;;;;27.40;4.40;;;10.00;99.90;;;;;;5040162;28;20064;-73
2023/01/12 02:45:50;;;;;;;31.77;4.45;;;10.00;99.90;;;;;;5046651;28;20059;-73
2023/01/12 02:48:22;;;;;;;30.75;4.75;;;10.00;99.90;;;;;;5045848;28;20052;-74
2023/01/12 02:51:10;;;;;;;31.77;4.75;;;9.90;99.90;;;;;;5046890;28;20484;-74
2023/01/12 02:53:42;;;;;;;30.98;4.53;;;9.90;99.90;;;;;;5049261;28;20425;-74
2023/01/12 02:56:10;;;;;;;32.60;4.88;;;9.90;99.90;;;;;;5050055;28;20021;-73
2023/01/12 02:58:42;;;;;;;28.45;4.18;;;9.90;99.90;;;;;;5046478;28;20076;-74
2023/01/12 03:01:08;;;;;;;34.00;5.25;;;9.90;99.90;;;;;;5036219;28;20476;-74
2023/01/12 03:03:38;;;;;;;24.92;4.05;;;9.90;99.90;;;;;;5049390;28;20155;-74
2023/01/12 03:06:05;;;;;;;30.63;4.43;;;9.90;99.90;;;;;;5050170;28;20070;-74
2023/01/12 03:08:34;;;;;;;23.65;4.32;;;9.90;99.90;;;;;;5036271;28;20380;-74
2023/01/12 03:11:11;;;;;;;25.77;3.97;;;9.90;99.90;;;;;;5049816;28;20029;-74
2023/01/12 03:13:41;;;;;;;21.60;4.00;;;9.90;99.90;;;;;;5048334;28;20250;-74
2023/01/12 03:16:11;;;;;;;23.10;3.92;;;9.90;99.90;;;;;;5049534;28;20060;-74
2023/01/12 03:19:08;;;;;;;25.30;3.63;;;9.90;99.90;;;;;;5048166;28;20171;-73
2023/01/12 03:21:37;;;;;;;21.98;3.72;;;9.90;99.90;;;;;;5039273;28;20029;-74
2023/01/12 03:24:10;;;;;;;17.58;3.05;;;9.80;99.90;;;;;;5049682;28;20021;-74
2023/01/12 03:26:41;;;;;;;21.10;3.45;;;9.80;99.90;;;;;;5034151;28;20036;-74
2023/01/12 03:29:24;;;;;;;19.13;3.25;;;9.80;99.90;;;;;;5039818;28;20403;-73
2023/01/12 03:31:50;;;;;;;18.70;3.28;;;9.80;99.90;;;;;;5049089;28;20029;-74
2023/01/12 03:34:16;;;;;;;19.92;3.63;;;9.80;99.90;;;;;;5048792;28;20021;-73
2023/01/12 03:36:54;;;;;;;19.00;3.33;;;9.80;99.90;;;;;;5050034;28;20029;-74
2023/01/12 03:39:47;;;;;;;16.13;3.33;;;9.70;99.90;;;;;;5048110;28;20056;-78
2023/01/12 03:42:25;;;;;;;17.45;3.20;;;9.70;99.90;;;;;;5049442;28;20025;-74
2023/01/12 03:45:03;;;;;;;17.88;3.35;;;9.60;99.90;;;;;;5042257;28;20029;-74
2023/01/12 03:47:30;;;;;;;20.20;3.10;;;9.60;99.90;;;;;;5048034;28;20140;-74
2023/01/12 03:50:00;;;;;;;19.50;3.60;;;9.60;99.90;;;;;;5053247;28;20025;-73
2023/01/12 03:52:28;;;;;;;19.23;3.63;;;9.60;99.90;;;;;;5050103;28;20132;-74
2023/01/12 03:54:56;;;;;;;13.45;3.08;;;9.60;99.90;;;;;;5038004;28;20045;-74
2023/01/12 03:57:22;;;;;;;13.27;3.38;;;9.60;99.90;;;;;;5052236;28;20099;-74
2023/01/12 03:59:48;;;;;;;13.35;3.08;;;9.60;99.90;;;;;;5052918;28;20455;-74
2023/01/12 04:02:13;;;;;;;13.20;3.95;;;9.60;99.90;;;;;;5046736;28;20056;-73
2023/01/12 04:04:39;;;;;;;14.48;3.60;;;9.50;99.90;;;;;;5045285;28;20033;-74
2023/01/12 04:07:05;;;;;;;11.30;3.45;;;9.50;99.90;;;;;;5050838;28;20107;-74
2023/01/12 04:09:30;;;;;;;11.27;2.63;;;9.50;99.90;;;;;;5038635;28;20029;-74
2023/01/12 04:12:11;;;;;;;11.45;2.88;;;9.50;99.90;;;;;;5040279;28;20116;-73
2023/01/12 04:14:38;;;;;;;16.92;3.65;;;9.50;99.90;;;;;;5034765;28;20043;-73
2023/01/12 04:17:05;;;;;;;9.80;2.90;;;9.50;99.90;;;;;;5045527;28;20104;-73
2023/01/12 04:19:30;;;;;;;16.52;3.55;;;9.50;99.90;;;;;;5045601;28;20075;-73
2023/01/12 04:24:40;;;;;;;10.45;2.58;;;9.50;99.90;;;;;;5048178;28;20423;-73
2023/01/12 04:27:06;;;;;;;12.85;2.30;;;9.50;99.90;;;;;;5034544;28;20025;-73
2023/01/12 04:29:31;;;;;;;11.70;2.75;;;9.50;99.90;;;;;;5044316;28;20033;-72
2023/01/12 04:31:57;;;;;;;11.65;2.53;;;9.50;99.90;;;;;;5052400;28;20025;-72
2023/01/12 04:34:23;;;;;;;12.88;2.33;;;9.50;99.90;;;;;;5052688;28;20017;-73
2023/01/12 04:36:48;;;;;;;13.05;2.72;;;9.50;99.90;;;;;;5042765;28;20036;-73
2023/01/12 04:39:14;;;;;;;21.98;2.90;;;9.50;99.90;;;;;;5049757;28;20028;-73
2023/01/12 04:41:40;;;;;;;11.02;2.50;;;9.50;99.90;;;;;;5052784;28;20072;-73
2023/01/12 04:44:05;;;;;;;13.40;2.70;;;9.50;99.90;;;;;;5046548;28;20388;-73
2023/01/12 04:46:31;;;;;;;13.32;2.47;;;9.50;99.90;;;;;;5039078;28;20464;-73
2023/01/12 04:48:57;;;;;;;11.93;2.08;;;9.50;99.90;;;;;;5046233;28;20488;-72
2023/01/12 04:51:23;;;;;;;9.45;2.10;;;9.60;99.90;;;;;;5032313;28;20025;-73
2023/01/12 04:53:50;;;;;;;12.73;1.90;;;9.60;99.90;;;;;;5031789;28;20040;-73
2023/01/12 04:56:16;;;;;;;5.35;1.70;;;9.60;99.90;;;;;;5033354;28;20476;-73
2023/01/12 04:58:42;;;;;;;9.85;2.25;;;9.60;99.90;;;;;;5034149;28;20423;-73
2023/01/12 05:01:13;;;;;;;9.15;2.00;;;9.60;99.90;;;;;;5051779;28;20096;-73
2023/01/12 05:03:38;;;;;;;14.07;2.30;;;9.60;99.90;;;;;;5052089;28;20039;-73
2023/01/12 05:06:04;;;;;;;10.85;1.70;;;9.70;99.90;;;;;;5034709;28;20389;-73
2023/01/12 05:11:14;;;;;;;6.28;1.67;;;9.70;99.90;;;;;;5050978;28;20371;-74
2023/01/12 05:13:40;;;;;;;7.40;1.70;;;9.70;99.90;;;;;;5039237;28;20025;-73
2023/01/12 05:16:14;;;;;;;11.57;1.50;;;9.70;99.90;;;;;;5046293;28;20455;-73
2023/01/12 05:18:40;;;;;;;7.05;1.40;;;9.80;99.90;;;;;;5032126;28;20039;-73
2023/01/12 05:21:06;;;;;;;6.32;1.40;;;9.80;99.90;;;;;;5031887;28;20357;-73
2023/01/12 05:23:31;;;;;;;5.13;1.10;;;9.90;99.90;;;;;;5032814;28;20028;-73
2023/01/12 05:26:02;;;;;;;8.48;1.55;;;10.00;99.90;;;;;;5042424;28;20029;-73
2023/01/12 05:28:28;;;;;;;9.32;1.58;;;10.00;99.90;;;;;;5044425;28;20052;-73
2023/01/12 05:31:00;;;;;;;7.97;1.35;;;10.10;99.90;;;;;;5043295;28;20107;-74
2023/01/12 05:33:25;;;;;;;9.63;1.50;;;10.10;99.90;;;;;;5031093;28;20109;-74
2023/01/12 05:35:51;;;;;;;11.68;1.80;;;10.10;99.90;;;;;;5031008;28;20093;-73
2023/01/12 05:38:16;;;;;;;11.20;1.50;;;10.10;99.90;;;;;;5038584;28;20028;-73
2023/01/12 05:40:42;;;;;;;9.18;1.60;;;10.10;99.90;;;;;;5040353;28;20066;-73
2023/01/12 05:45:56;;;;;;;12.70;1.75;;;10.30;99.90;;;;;;5038219;28;20044;-74
2023/01/12 05:48:22;;;;;;;14.85;2.63;;;10.30;99.90;;;;;;5040667;28;20041;-73
2023/01/12 05:50:47;;;;;;;16.25;2.47;;;10.30;99.90;;;;;;5032720;28;20017;-74
2023/01/12 05:53:13;;;;;;;15.85;2.30;;;10.40;99.90;;;;;;5033105;28;20439;-74
2023/01/12 05:55:39;;;;;;;21.02;2.30;;;10.40;99.90;;;;;;5049263;28;20021;-74
2023/01/12 05:58:04;;;;;;;19.15;3.17;;;10.40;99.90;;;;;;5050345;28;20029;-74
2023/01/12 06:00:30;;;;;;;24.20;3.17;;;10.50;99.90;;;;;;5049442;28;20025;-71
2023/01/12 06:02:55;;;;;;;27.92;3.45;;;10.50;99.90;;;;;;5043909;28;20025;-71
2023/01/12 06:05:21;;;;;;;20.23;3.20;;;10.50;99.90;;;;;;5041437;28;20314;-72
2023/01/12 06:07:47;;;;;;;26.17;3.97;;;10.60;99.90;;;;;;5036640;28;20537;-71
2023/01/12 06:10:12;;;;;;;24.48;4.13;;;10.60;99.90;;;;;;5036439;28;20021;-71
2023/01/12 06:15:22;;;;;;;31.45;4.72;;;10.70;99.90;;;;;;5034018;28;20067;-71
2023/01/12 06:17:47;;;;;;;32.83;4.97;;;10.80;99.90;;;;;;5046525;28;20064;-72
2023/01/12 06:20:15;;;;;;;39.60;5.18;;;10.80;99.90;;;;;;5047431;28;20017;-71
2023/01/12 06:22:42;;;;;;;40.95;5.60;;;10.80;99.90;;;;;;5043110;28;20117;-71
2023/01/12 06:25:08;;;;;;;38.05;5.30;;;10.90;99.90;;;;;;5048809;28;20074;-71
2023/01/12 06:27:37;;;;;;;37.78;5.15;;;10.90;99.90;;;;;;5039543;28;20053;-71
2023/01/12 06:30:05;;;;;;;38.47;5.03;;;10.90;99.90;;;;;;5047666;28;20021;-71
2023/01/12 06:32:31;;;;;;;44.15;6.20;;;11.00;99.90;;;;;;5040983;28;20551;-70
2023/01/12 06:34:57;;;;;;;48.88;7.40;;;11.00;99.90;;;;;;5050997;28;20063;-71
2023/01/12 06:37:24;;;;;;;53.22;7.25;;;11.00;99.90;;;;;;5039949;28;20056;-71
2023/01/12 06:39:49;;;;;;;34.13;4.80;;;11.00;99.90;;;;;;5042567;28;20017;-71
2023/01/12 06:42:27;;;;;;;42.67;6.13;;;11.00;99.90;;;;;;5035933;28;20480;-71
2023/01/12 06:44:54;;;;;;;46.63;6.60;;;11.10;99.90;;;;;;5039376;28;20459;-70
2023/01/12 06:47:20;;;;;;;48.50;6.20;;;11.10;99.90;;;;;;5039448;28;20342;-72
2023/01/12 06:49:46;;;;;;;45.22;6.07;;;11.20;99.90;;;;;;5041568;28;20075;-72
2023/01/12 06:52:12;;;;;;;43.20;5.85;;;11.10;99.90;;;;;;5039689;28;20427;-71
2023/01/12 06:54:37;;;;;;;45.25;6.30;;;11.20;99.90;;;;;;5042391;28;20071;-72
2023/01/12 06:57:03;;;;;;;49.72;6.57;;;11.20;99.90;;;;;;5030104;28;20029;-72
2023/01/12 06:59:29;;;;;;;51.95;7.05;;;11.20;99.90;;;;;;5039968;28;20025;-72
2023/01/12 07:01:54;;;;;;;43.85;5.47;;;11.20;99.90;;;;;;5037110;28;20045;-72
2023/01/12 07:04:20;;;;;;;52.13;5.60;;;11.20;99.90;;;;;;5034483;28;20463;-73
2023/01/12 07:06:47;;;;;;;41.35;5.90;;;11.20;99.90;;;;;;5035866;28;20030;-72
2023/01/12 07:09:12;;;;;;;47.55;6.13;;;11.30;99.90;;;;;;5038979;28;20063;-72
2023/01/12 07:11:38;;;;;;;46.75;5.90;;;11.30;99.90;;;;;;5043848;28;20041;-72
2023/01/12 07:14:04;;;;;;;45.92;6.68;;;11.30;99.90;;;;;;5030425;28;20025;-73
2023/01/12 07:16:29;;;;;;;41.42;6.00;;;11.30;99.90;;;;;;5041013;28;20078;-72
2023/01/12 07:18:55;;;;;;;38.45;4.85;;;11.30;99.90;;;;;;5038607;28;20439;-72
2023/01/12 07:21:21;;;;;;;42.67;5.82;;;11.30;99.90;;;;;;5047852;28;20017;-72
2023/01/12 07:23:46;;;;;;;50.95;6.22;;;11.30;99.90;;;;;;5050539;28;20025;-72
2023/01/12 07:26:12;;;;;;;49.92;6.82;;;11.30;99.90;;;;;;5044495;28;20205;-72
2023/01/12 07:28:38;;;;;;;50.88;7.20;;;11.30;99.90;;;;;;5050726;28;20395;-72
2023/01/12 07:31:05;;;;;;;50.40;8.50;;;11.30;99.90;;;;;;5051451;28;20079;-72
2023/01/12 07:33:33;;;;;;;48.13;6.25;;;11.30;99.90;;;;;;5052297;28;20032;-72
2023/01/12 07:36:00;;;;;;;48.65;6.50;;;11.30;99.90;;;;;;5053825;28;20386;-73
2023/01/12 07:38:27;;;;;;;47.35;6.63;;;11.30;99.90;;;;;;5052239;28;20035;-72
2023/01/12 07:40:52;;;;;;;49.33;6.25;;;11.30;99.90;;;;;;5052457;28;20036;-72
2023/01/12 07:43:18;;;;;;;56.00;7.78;;;11.30;99.90;;;;;;5050792;28;20033;-72
2023/01/12 07:45:44;;;;;;;46.50;6.82;;;11.30;99.90;;;;;;5052807;28;20033;-72
2023/01/12 07:48:10;;;;;;;47.33;7.47;;;11.40;99.90;;;;;;5039259;28;20087;-73
2023/01/12 07:50:36;;;;;;;54.13;6.95;;;11.40;99.90;;;;;;5052383;28;20028;-72
2023/01/12 07:53:03;;;;;;;47.03;7.70;;;11.40;99.90;;;;;;5052358;28;20040;-72
2023/01/12 07:55:30;;;;;;;55.83;6.72;;;11.40;99.90;;;;;;5031899;28;20033;-72
2023/01/12 07:57:58;;;;;;;51.90;7.32;;;11.40;99.90;;;;;;5045847;28;20108;-73
2023/01/12 08:00:24;;;;;;;46.15;6.60;;;11.40;99.90;;;;;;5052286;28;20112;-72
2023/01/12 08:02:51;;;;;;;53.17;7.32;;;11.40;99.90;;;;;;5037974;28;20028;-73
2023/01/12 08:05:17;;;;;;;48.90;6.53;;;11.40;99.90;;;;;;5048811;28;20039;-72
2023/01/12 08:07:43;;;;;;;52.65;7.25;;;11.40;99.90;;;;;;5044305;28;20104;-73
2023/01/12 08:10:10;;;;;;;60.85;7.57;;;11.50;99.90;;;;;;5035592;28;20020;-73
2023/01/12 08:12:35;;;;;;;46.72;6.93;;;11.50;99.90;;;;;;5047609;28;20017;-72
2023/01/12 08:15:03;;;;;;;51.30;6.80;;;11.50;99.90;;;;;;5050447;28;20032;-73
2023/01/12 08:17:33;;;;;;;47.08;6.75;;;11.50;99.90;;;;;;5050457;28;20029;-73
2023/01/12 08:20:04;;;;;;;47.75;7.03;;;11.50;99.90;;;;;;5039062;28;20487;-72
2023/01/12 08:22:37;;;;;;;49.75;7.38;;;11.50;99.90;;;;;;5038909;28;20843;-72
2023/01/12 08:25:08;;;;;;;50.35;6.55;;;11.50;99.90;;;;;;5049954;28;20029;-72
2023/01/12 08:27:37;;;;;;;47.85;7.50;;;11.50;99.90;;;;;;5037357;28;20049;-72
2023/01/12 08:30:07;;;;;;;49.58;6.97;;;11.50;99.90;;;;;;5041833;28;20037;-74
2023/01/12 08:32:35;;;;;;;52.97;6.88;;;11.50;99.90;;;;;;5034845;28;21526;-73
2023/01/12 08:35:02;;;;;;;50.88;6.85;;;11.50;99.90;;;;;;5042220;28;20032;-73
2023/01/12 08:37:29;;;;;;;50.08;7.57;;;11.50;99.90;;;;;;5038989;28;20025;-73
2023/01/12 08:39:56;;;;;;;51.67;7.00;;;11.50;99.90;;;;;;5037902;28;20111;-72
2023/01/12 08:42:26;;;;;;;48.45;7.45;;;11.40;99.90;;;;;;5049262;28;20598;-73
2023/01/12 08:44:52;;;;;;;45.38;6.82;;;11.40;99.90;;;;;;5041893;28;20044;-72
2023/01/12 08:47:20;;;;;;;50.10;6.55;;;11.40;99.90;;;;;;5038792;28;20057;-73
2023/01/12 08:49:46;;;;;;;50.30;7.32;;;11.40;99.90;;;;;;5049072;28;20072;-72
2023/01/12 08:52:13;;;;;;;52.70;6.97;;;11.50;99.90;;;;;;5032663;28;20014;-72
2023/01/12 08:54:39;;;;;;;57.92;7.40;;;11.50;99.90;;;;;;5045661;28;20017;-74
2023/01/12 08:57:04;;;;;;;48.78;6.80;;;11.50;99.90;;;;;;5033388;28;20490;-72
2023/01/12 08:59:30;;;;;;;53.15;7.50;;;11.60;99.90;;;;;;5037282;28;20009;-72
2023/01/12 09:01:56;;;;;;;58.55;7.63;;;11.60;99.90;;;;;;5051198;28;20024;-74
2023/01/12 09:04:21;;;;;;;57.78;7.82;;;11.60;99.90;;;;;;5047416;28;20032;-75
2023/01/12 09:06:48;;;;;;;54.22;7.13;;;11.60;99.90;;;;;;5041793;28;20471;-73
2023/01/12 09:09:18;;;;;;;62.50;7.78;;;11.60;99.90;;;;;;5051540;28;20067;-72
2023/01/12 09:11:44;;;;;;;58.22;7.25;;;11.60;99.90;;;;;;5051361;28;20353;-74
2023/01/12 09:14:11;;;;;;;59.72;7.50;;;11.60;99.90;;;;;;5050077;28;20021;-73
2023/01/12 09:16:37;;;;;;;55.08;7.72;;;11.60;99.90;;;;;;5050596;28;20143;-72
2023/01/12 09:19:03;;;;;;;51.63;8.02;;;11.70;99.90;;;;;;5050800;28;20107;-72
2023/01/12 09:21:30;;;;;;;58.30;7.35;;;11.70;99.90;;;;;;5049425;28;20495;-73
2023/01/12 09:23:56;;;;;;;62.20;8.75;;;11.60;99.90;;;;;;5044794;28;20029;-73
2023/01/12 09:26:30;;;;;;;57.67;7.43;;;11.70;99.90;;;;;;5043634;28;20524;-72
2023/01/12 09:29:00;;;;;;;53.47;7.60;;;11.70;99.90;;;;;;5031804;28;20554;-74
2023/01/12 09:31:27;;;;;;;47.65;7.47;;;11.70;99.90;;;;;;5043982;28;20098;-73
2023/01/12 09:33:54;;;;;;;51.90;7.63;;;11.60;99.90;;;;;;5031615;28;20067;-73
2023/01/12 09:36:22;;;;;;;47.63;7.32;;;11.60;99.90;;;;;;5034811;28;20029;-74
2023/01/12 09:38:48;;;;;;;39.22;6.15;;;11.60;99.90;;;;;;5047208;28;20571;-73
2023/01/12 09:47:28;;;;;;;54.40;6.50;;;11.50;99.90;;;;;;5038119;28;20581;-73
2023/01/12 09:50:07;;;;;;;41.30;6.20;;;11.50;99.90;;;;;;5045332;28;20049;-72
2023/01/12 09:52:38;;;;;;;51.80;7.05;;;11.50;99.90;;;;;;5050189;28;20407;-72
2023/01/12 09:55:11;;;;;;;59.17;6.95;;;11.40;99.90;;;;;;5051067;28;20021;-72
2023/01/12 09:57:54;;;;;;;51.42;6.68;;;11.40;99.90;;;;;;5050188;28;20045;-73
2023/01/12 10:00:21;;;;;;;68.63;8.25;;;11.40;99.90;;;;;;5049882;28;20500;-72
2023/01/12 10:03:09;;;;;;;66.05;8.40;;;11.40;99.90;;;;;;5048759;28;20013;-73
2023/01/12 10:05:46;;;;;;;61.40;7.78;;;11.40;99.90;;;;;;5029581;28;20543;-73
2023/01/12 10:08:21;;;;;;;61.13;7.65;;;11.40;99.90;;;;;;5041357;28;20021;-72
2023/01/12 10:11:00;;;;;;;60.85;7.55;;;11.40;99.90;;;;;;5044023;28;20017;-73
2023/01/12 10:13:40;;;;;;;50.45;7.20;;;11.40;99.90;;;;;;5042151;28;20059;-72
2023/01/12 10:16:15;;;;;;;57.78;7.10;;;11.40;99.90;;;;;;5045034;28;20021;-72
2023/01/12 10:18:45;;;;;;;58.00;6.18;;;11.40;99.90;;;;;;5030629;28;20128;-73
2023/01/12 10:21:11;;;;;;;42.33;6.30;;;11.40;99.90;;;;;;5048551;28;20017;-73
2023/01/12 10:23:37;;;;;;;42.28;5.88;;;11.50;99.90;;;;;;5043873;28;20022;-72
2023/01/12 10:26:20;;;;;;;52.97;6.82;;;11.40;99.90;;;;;;5038941;28;20081;-72
2023/01/12 10:28:47;;;;;;;39.78;6.32;;;11.50;99.90;;;;;;5038939;28;20121;-72
2023/01/12 10:31:19;;;;;;;37.47;5.63;;;11.50;99.90;;;;;;5031047;28;20028;-72
2023/01/12 10:34:00;;;;;;;49.10;6.03;;;11.60;99.90;;;;;;5040640;28;20029;-73
2023/01/12 10:36:26;;;;;;;53.78;6.15;;;11.50;99.90;;;;;;5038755;28;20022;-72
2023/01/12 10:38:56;;;;;;;45.20;5.95;;;11.60;99.90;;;;;;5045729;28;20448;-72
2023/01/12 10:41:30;;;;;;;48.58;5.93;;;11.60;99.90;;;;;;5049733;28;20021;-73
2023/01/12 10:43:58;;;;;;;50.85;6.05;;;11.60;99.90;;;;;;5037807;28;20095;-72
2023/01/12 10:46:30;;;;;;;41.80;5.63;;;11.60;99.90;;;;;;5044076;28;20053;-72
2023/01/12 10:49:16;;;;;;;45.13;6.25;;;11.70;99.90;;;;;;5037990;28;20017;-72
2023/01/12 10:51:52;;;;;;;42.15;5.85;;;11.70;99.90;;;;;;5046018;28;20017;-73
2023/01/12 10:54:21;;;;;;;41.55;6.32;;;11.70;99.90;;;;;;5030256;28;20496;-72
2023/01/12 10:57:21;;;;;;;38.70;5.57;;;11.70;99.90;;;;;;5040845;28;20022;-72
2023/01/12 10:59:58;;;;;;;44.05;5.75;;;11.70;99.90;;;;;;5047547;28;20091;-73
2023/01/12 11:02:27;;;;;;;43.35;5.15;;;11.70;99.90;;;;;;5053471;28;20029;-72
2023/01/12 11:04:53;;;;;;;40.45;5.80;;;11.70;99.90;;;;;;5054267;28;20024;-72
2023/01/12 11:07:29;;;;;;;42.58;5.70;;;11.70;99.90;;;;;;5040783;28;20033;-74
2023/01/12 11:10:16;;;;;;;46.35;6.32;;;11.70;99.90;;;;;;5040476;28;20459;-73
2023/01/12 11:12:41;;;;;;;34.95;5.30;;;11.70;99.90;;;;;;5036462;28;20033;-72
2023/01/12 11:15:10;;;;;;;49.95;6.80;;;11.70;99.90;;;;;;5039317;28;20036;-72
2023/01/12 11:17:49;;;;;;;35.17;5.88;;;11.70;99.90;;;;;;5047685;28;20111;-72
2023/01/12 11:20:15;;;;;;;45.75;5.75;;;11.70;99.90;;;;;;5043847;28;20057;-72
2023/01/12 11:22:44;;;;;;;41.95;5.97;;;11.70;99.90;;;;;;5042476;28;20514;-73
2023/01/12 11:25:16;;;;;;;47.60;6.00;;;11.70;99.90;;;;;;5051562;28;20037;-73
2023/01/12 11:27:46;;;;;;;43.60;6.70;;;11.80;99.90;;;;;;5034099;28;20108;-72
2023/01/12 11:30:30;;;;;;;54.80;6.53;;;11.80;99.90;;;;;;5035580;28;20036;-72
2023/01/12 11:33:07;;;;;;;44.92;6.30;;;11.80;99.90;;;;;;5052384;28;20025;-74
2023/01/12 11:35:40;;;;;;;47.33;6.38;;;11.80;99.90;;;;;;5037837;28;20072;-73
2023/01/12 11:38:14;;;;;;;43.38;5.70;;;11.80;99.90;;;;;;5044449;28;20488;-73
2023/01/12 11:40:41;;;;;;;42.67;6.15;;;11.80;99.90;;;;;;5052124;28;20107;-73
2023/01/12 11:46:14;;;;;;;33.92;5.70;;;11.80;99.90;;;;;;5052326;28;20020;-74
2023/01/12 11:49:18;;;;;;;37.97;6.05;;;11.80;99.90;;;;;;5039203;28;20515;-73
2023/01/12 11:51:52;;;;;;;45.15;6.05;;;11.80;99.90;;;;;;4951586;28;20030;-73
2023/01/12 11:54:18;;;;;;;47.53;6.53;;;11.80;99.90;;;;;;4953235;28;20418;-73
2023/01/12 11:57:14;;;;;;;43.40;6.53;;;11.80;99.90;;;;;;4951913;28;20550;-73
2023/01/12 12:00:13;;;;;;;40.17;5.68;;;11.80;99.90;;;;;;4960998;28;20058;-73
2023/01/12 12:02:44;;;;;;;41.13;6.43;;;11.80;99.90;;;;;;4953293;28;20483;-73
2023/01/12 12:05:12;;;;;;;37.65;5.82;;;11.80;99.90;;;;;;4955265;28;20506;-74
2023/01/12 12:07:59;;;;;;;34.58;5.03;;;11.80;99.90;;;;;;4953933;28;20426;-73
2023/01/12 12:10:34;;;;;;;32.63;4.38;;;11.80;99.90;;;;;;4952731;29;20495;-73
2023/01/12 12:13:19;;;;;;;26.70;3.92;;;11.80;99.90;;;;;;4951421;28;20570;-73
2023/01/12 12:15:53;;;;;;;27.17;3.60;;;11.80;99.90;;;;;;4945348;28;20090;-72
2023/01/12 12:18:42;;;;;;;21.08;3.38;;;11.70;99.90;;;;;;4940227;29;20070;-74
2023/01/12 12:21:29;;;;;;;18.70;2.58;;;11.70;99.90;;;;;;4960713;28;20589;-74
2023/01/12 12:24:09;;;;;;;19.48;2.88;;;11.70;99.90;;;;;;4953778;28;20372;-74
2023/01/12 12:26:43;;;;;;;11.77;2.05;;;11.60;99.90;;;;;;5037316;28;20036;-72
2023/01/12 12:29:31;;;;;;;14.32;2.17;;;11.60;99.90;;;;;;5044213;28;20410;-74
2023/01/12 12:32:24;;;;;;;14.27;2.10;;;11.50;99.90;;;;;;5046108;28;20036;-74
2023/01/12 12:35:34;;;;;;;15.65;2.13;;;11.50;99.90;;;;;;5045198;28;20037;-73
2023/01/12 12:38:24;;;;;;;10.73;1.70;;;11.50;99.90;;;;;;5042846;28;20501;-73
2023/01/12 12:47:39;;;;;;;13.23;1.92;;;11.40;99.90;;;;;;5049734;28;20130;-73
2023/01/12 12:50:16;;;;;;;8.27;1.58;;;11.40;99.90;;;;;;5049325;28;20055;-73
2023/01/12 12:52:43;;;;;;;8.88;1.77;;;11.40;99.90;;;;;;5040560;28;20061;-74
2023/01/12 12:55:12;;;;;;;9.48;1.75;;;11.40;99.90;;;;;;5035130;28;20025;-73
2023/01/12 12:58:00;;;;;;;12.25;1.80;;;11.40;99.90;;;;;;5041280;28;20495;-73
2023/01/12 13:00:41;;;;;;;12.73;1.58;;;11.40;99.90;;;;;;5051072;28;20194;-74
2023/01/12 13:03:08;;;;;;;7.57;1.55;;;11.40;99.90;;;;;;5040328;28;20025;-73
2023/01/12 13:05:47;;;;;;;13.30;1.95;;;11.40;99.90;;;;;;5051852;28;20029;-73
2023/01/12 13:08:23;;;;;;;7.93;1.55;;;11.40;99.90;;;;;;5036497;28;20029;-72
2023/01/12 13:10:54;;;;;;;11.43;1.15;;;11.30;99.90;;;;;;5045466;28;20379;-72
2023/01/12 13:13:22;;;;;;;7.53;1.10;;;11.30;99.90;;;;;;5044673;28;20150;-73
2023/01/12 13:15:49;;;;;;;12.30;1.52;;;11.40;99.90;;;;;;5044364;28;20070;-73
2023/01/12 13:18:49;;;;;;;9.32;1.75;;;11.30;99.90;;;;;;5045235;28;20027;-73
2023/01/12 13:21:42;;;;;;;12.65;1.45;;;11.40;99.90;;;;;;5049403;28;20099;-73
2023/01/12 13:24:13;;;;;;;8.52;1.73;;;11.30;99.90;;;;;;5050331;28;20035;-73
2023/01/12 13:26:42;;;;;;;5.25;1.17;;;11.30;99.90;;;;;;5037715;28;20466;-74
2023/01/12 13:29:26;;;;;;;7.80;1.33;;;11.30;99.90;;;;;;5044512;28;20456;-73
2023/01/12 13:32:18;;;;;;;7.97;1.40;;;11.30;99.90;;;;;;5031421;28;20022;-73
2023/01/12 13:34:45;;;;;;;9.90;1.27;;;11.30;99.90;;;;;;5039171;28;20051;-72
2023/01/12 13:37:37;;;;;;;9.77;1.63;;;11.30;99.90;;;;;;5041924;28;20049;-73